CHIUDI BANNER

Seguici su twitter Seguici su facebook
LIVE Streaming HD
Get Adobe Flash player
Dati meteo stazione (refresh automatico ogni minuto)
Ostia(RM) VENTO: VELOCITÀ   PIOGGIA: QTA GIORNO TEMPERATURA: ATTUALE
SPOT: Kursaal Lido Ostia ---- Posizione su Googlemap:Latitudine: 41.71N Longitudine: 12.31E RAFFICA MASSIMA: QTA MENSILE: MASSIMA:
VELOCITÀ MEDIA: QTA ANNUALE: MINIMA:
DIREZIONE: UMIDITÀ: WIND CHILL:
TIPO: DEW POINT:
BEAUFORT: PRESSIONE:
I nostri partner
Ostia(RM) nelle ultime ore
Applica filtri in visualizzazione Intervallo delle letture nelle ultime

Ora Direzione Vento Velocita' Vento Media Vento Raffica Max. Temperatura Wind Chill Pioggia Pressione
03:32:5110 °(N)4.3 Kts1.7 Kts7.8 Kts8.7 °C8.7 °C0 mm1010.2 Hpa
03:29:3114 °(NNE)3.5 Kts1.7 Kts7.8 Kts8.8 °C8.8 °C0 mm1010 Hpa
03:24:0925 °(NNE)1.7 Kts2.6 Kts7.8 Kts8.8 °C8.8 °C0 mm1010.2 Hpa
03:19:3914 °(NNE)0.9 Kts2.6 Kts7.8 Kts8.9 °C8.9 °C0 mm1010.3 Hpa
03:14:1814 °(NNE)0.9 Kts3.5 Kts7.8 Kts8.9 °C8.9 °C0 mm1010.4 Hpa
03:09:499 °(N)1.7 Kts3.5 Kts7.8 Kts8.9 °C8.9 °C0 mm1010.5 Hpa
03:04:2727 °(NNE)4.3 Kts4.3 Kts7.8 Kts8.9 °C7.6 °C0 mm1010.5 Hpa
02:59:41359 °(N)4.3 Kts3.5 Kts7.8 Kts9 °C9 °C0 mm1010.7 Hpa
02:54:17338 °(NNW)4.3 Kts3.5 Kts7.8 Kts9.2 °C9.2 °C0 mm1010.7 Hpa
02:49:50326 °(NW)4.3 Kts2.6 Kts7.8 Kts9.3 °C9.3 °C0 mm1010.5 Hpa
02:42:18350 °(N)3.5 Kts2.6 Kts7.8 Kts9.5 °C9.5 °C0 mm1010.5 Hpa
02:39:23354 °(N)3.5 Kts3.5 Kts7.8 Kts9.6 °C9.6 °C0 mm1010.5 Hpa
02:34:024 °(N)1.7 Kts3.5 Kts7.8 Kts9.7 °C9.7 °C0 mm1010.4 Hpa
02:29:33348 °(NNW)2.6 Kts3.5 Kts7.8 Kts9.8 °C9.8 °C0 mm1010.5 Hpa
02:24:10339 °(NNW)2.6 Kts3.5 Kts7.8 Kts9.9 °C9.9 °C0 mm1010.5 Hpa
02:19:42359 °(N)4.3 Kts4.3 Kts7.8 Kts9.9 °C8.6 °C0 mm1010.7 Hpa
02:14:19359 °(N)2.6 Kts4.3 Kts7.8 Kts10 °C8.7 °C0 mm1010.8 Hpa
02:09:49344 °(NNW)2.6 Kts3.5 Kts7.8 Kts10.2 °C10.2 °C0 mm1010.8 Hpa
02:04:25328 °(NNW)4.3 Kts3.5 Kts7.8 Kts10.1 °C10.1 °C0 mm1010.9 Hpa
01:59:12321 °(NW)2.6 Kts3.5 Kts7.8 Kts10.2 °C10.2 °C0 mm1010.8 Hpa
01:54:29345 °(NNW)2.6 Kts4.3 Kts7.8 Kts10.3 °C9 °C0 mm1010.7 Hpa
01:49:00339 °(NNW)3.5 Kts4.3 Kts7.8 Kts10.3 °C9.1 °C0 mm1010.7 Hpa
01:44:29359 °(N)4.3 Kts5.2 Kts7.8 Kts10.3 °C8.3 °C0 mm1010.9 Hpa
01:37:34354 °(N)4.3 Kts5.2 Kts7.8 Kts10.3 °C8.3 °C0 mm1010.9 Hpa